sensor_id;sensor_type;location;lat;lon;timestamp;temperature;humidity
19536;HTU21D;9913;51.168;4.124;2023-07-09T00:01:57;23.70;93.14
19536;HTU21D;9913;51.168;4.124;2023-07-09T00:04:25;23.79;93.49
19536;HTU21D;9913;51.168;4.124;2023-07-09T00:06:56;23.77;93.61
19536;HTU21D;9913;51.168;4.124;2023-07-09T00:09:26;23.47;91.02
19536;HTU21D;9913;51.168;4.124;2023-07-09T00:11:55;23.42;89.77
19536;HTU21D;9913;51.168;4.124;2023-07-09T00:14:24;23.45;89.80
19536;HTU21D;9913;51.168;4.124;2023-07-09T00:16:52;23.47;89.70
19536;HTU21D;9913;51.168;4.124;2023-07-09T00:19:22;23.42;89.66
19536;HTU21D;9913;51.168;4.124;2023-07-09T00:21:52;23.35;89.28
19536;HTU21D;9913;51.168;4.124;2023-07-09T00:24:21;23.31;89.33
19536;HTU21D;9913;51.168;4.124;2023-07-09T00:26:50;23.38;90.02
19536;HTU21D;9913;51.168;4.124;2023-07-09T00:29:18;23.27;88.99
19536;HTU21D;9913;51.168;4.124;2023-07-09T00:31:47;23.24;88.57
19536;HTU21D;9913;51.168;4.124;2023-07-09T00:34:15;23.24;88.70
19536;HTU21D;9913;51.168;4.124;2023-07-09T00:36:50;23.27;89.16
19536;HTU21D;9913;51.168;4.124;2023-07-09T00:39:20;23.14;88.28
19536;HTU21D;9913;51.168;4.124;2023-07-09T00:41:49;23.09;88.06
19536;HTU21D;9913;51.168;4.124;2023-07-09T00:44:28;23.09;88.17
19536;HTU21D;9913;51.168;4.124;2023-07-09T00:47:16;22.99;88.18
19536;HTU21D;9913;51.168;4.124;2023-07-09T00:49:46;23.16;89.35
19536;HTU21D;9913;51.168;4.124;2023-07-09T00:52:22;23.26;91.26
19536;HTU21D;9913;51.168;4.124;2023-07-09T00:54:52;23.39;92.34
19536;HTU21D;9913;51.168;4.124;2023-07-09T00:57:23;23.41;92.04
19536;HTU21D;9913;51.168;4.124;2023-07-09T00:59:57;23.42;92.98
19536;HTU21D;9913;51.168;4.124;2023-07-09T01:02:26;23.56;91.95
19536;HTU21D;9913;51.168;4.124;2023-07-09T01:04:58;23.51;92.60
19536;HTU21D;9913;51.168;4.124;2023-07-09T01:07:31;23.52;93.12
19536;HTU21D;9913;51.168;4.124;2023-07-09T01:10:00;23.70;93.88
19536;HTU21D;9913;51.168;4.124;2023-07-09T01:12:29;23.68;94.09
19536;HTU21D;9913;51.168;4.124;2023-07-09T01:14:59;23.80;94.85
19536;HTU21D;9913;51.168;4.124;2023-07-09T01:17:28;23.75;93.98
19536;HTU21D;9913;51.168;4.124;2023-07-09T01:19:57;23.89;94.66
19536;HTU21D;9913;51.168;4.124;2023-07-09T01:22:27;23.89;94.29
19536;HTU21D;9913;51.168;4.124;2023-07-09T01:25:00;23.84;94.14
19536;HTU21D;9913;51.168;4.124;2023-07-09T01:27:34;23.89;94.85
19536;HTU21D;9913;51.168;4.124;2023-07-09T01:30:07;23.80;94.05
19536;HTU21D;9913;51.168;4.124;2023-07-09T01:32:37;23.68;92.64
19536;HTU21D;9913;51.168;4.124;2023-07-09T01:35:07;23.76;93.40
19536;HTU21D;9913;51.168;4.124;2023-07-09T01:37:37;23.66;91.52
19536;HTU21D;9913;51.168;4.124;2023-07-09T01:40:07;23.55;91.21
19536;HTU21D;9913;51.168;4.124;2023-07-09T01:42:56;23.47;91.11
19536;HTU21D;9913;51.168;4.124;2023-07-09T01:45:27;23.47;90.86
19536;HTU21D;9913;51.168;4.124;2023-07-09T01:47:56;23.24;90.02
19536;HTU21D;9913;51.168;4.124;2023-07-09T01:50:25;23.22;89.18
19536;HTU21D;9913;51.168;4.124;2023-07-09T01:52:57;23.17;89.11
19536;HTU21D;9913;51.168;4.124;2023-07-09T01:55:27;23.10;87.73
19536;HTU21D;9913;51.168;4.124;2023-07-09T01:57:58;22.95;87.14
19536;HTU21D;9913;51.168;4.124;2023-07-09T02:00:26;23.02;86.68
19536;HTU21D;9913;51.168;4.124;2023-07-09T02:02:54;22.97;87.51
19536;HTU21D;9913;51.168;4.124;2023-07-09T02:05:25;22.83;86.09
19536;HTU21D;9913;51.168;4.124;2023-07-09T02:07:53;22.67;85.87
19536;HTU21D;9913;51.168;4.124;2023-07-09T02:10:23;22.60;86.35
19536;HTU21D;9913;51.168;4.124;2023-07-09T02:12:52;22.46;85.79
19536;HTU21D;9913;51.168;4.124;2023-07-09T02:15:24;22.43;85.39
19536;HTU21D;9913;51.168;4.124;2023-07-09T02:17:53;22.27;84.82
19536;HTU21D;9913;51.168;4.124;2023-07-09T02:20:21;22.25;84.95
19536;HTU21D;9913;51.168;4.124;2023-07-09T02:22:50;22.34;84.94
19536;HTU21D;9913;51.168;4.124;2023-07-09T02:25:19;22.47;85.21
19536;HTU21D;9913;51.168;4.124;2023-07-09T02:27:49;22.24;84.90
19536;HTU21D;9913;51.168;4.124;2023-07-09T02:30:17;22.43;84.89
19536;HTU21D;9913;51.168;4.124;2023-07-09T02:32:46;22.10;84.77
19536;HTU21D;9913;51.168;4.124;2023-07-09T02:35:16;22.11;84.61
19536;HTU21D;9913;51.168;4.124;2023-07-09T02:37:45;22.01;84.33
19536;HTU21D;9913;51.168;4.124;2023-07-09T02:40:14;22.10;84.19
19536;HTU21D;9913;51.168;4.124;2023-07-09T02:42:43;21.96;83.99
19536;HTU21D;9913;51.168;4.124;2023-07-09T02:45:14;21.95;83.97
19536;HTU21D;9913;51.168;4.124;2023-07-09T02:47:42;21.84;83.79
19536;HTU21D;9913;51.168;4.124;2023-07-09T02:50:11;21.89;83.65
19536;HTU21D;9913;51.168;4.124;2023-07-09T02:52:40;21.90;83.78
19536;HTU21D;9913;51.168;4.124;2023-07-09T02:55:09;21.90;83.59
19536;HTU21D;9913;51.168;4.124;2023-07-09T02:57:37;21.82;83.63
19536;HTU21D;9913;51.168;4.124;2023-07-09T03:00:06;21.92;83.68
19536;HTU21D;9913;51.168;4.124;2023-07-09T03:02:37;22.09;83.34
19536;HTU21D;9913;51.168;4.124;2023-07-09T03:05:06;22.09;83.57
19536;HTU21D;9913;51.168;4.124;2023-07-09T03:07:36;21.95;83.58
19536;HTU21D;9913;51.168;4.124;2023-07-09T03:10:05;21.98;83.45
19536;HTU21D;9913;51.168;4.124;2023-07-09T03:12:34;22.03;83.62
19536;HTU21D;9913;51.168;4.124;2023-07-09T03:15:03;22.06;83.45
19536;HTU21D;9913;51.168;4.124;2023-07-09T03:17:31;22.08;83.50
19536;HTU21D;9913;51.168;4.124;2023-07-09T03:20:01;22.04;83.31
19536;HTU21D;9913;51.168;4.124;2023-07-09T03:22:29;21.95;83.45
19536;HTU21D;9913;51.168;4.124;2023-07-09T03:24:58;22.13;83.42
19536;HTU21D;9913;51.168;4.124;2023-07-09T03:27:26;22.11;83.48
19536;HTU21D;9913;51.168;4.124;2023-07-09T03:29:54;21.77;83.55
19536;HTU21D;9913;51.168;4.124;2023-07-09T03:32:23;21.72;85.35
19536;HTU21D;9913;51.168;4.124;2023-07-09T03:34:51;21.81;84.93
19536;HTU21D;9913;51.168;4.124;2023-07-09T03:37:21;21.55;85.09
19536;HTU21D;9913;51.168;4.124;2023-07-09T03:39:50;21.57;86.67
19536;HTU21D;9913;51.168;4.124;2023-07-09T03:42:18;21.62;86.15
19536;HTU21D;9913;51.168;4.124;2023-07-09T03:44:46;21.63;86.67
19536;HTU21D;9913;51.168;4.124;2023-07-09T03:47:15;21.61;86.46
19536;HTU21D;9913;51.168;4.124;2023-07-09T03:49:46;21.59;86.57
19536;HTU21D;9913;51.168;4.124;2023-07-09T03:52:15;21.66;86.43
19536;HTU21D;9913;51.168;4.124;2023-07-09T03:54:45;21.52;86.56
19536;HTU21D;9913;51.168;4.124;2023-07-09T03:57:14;21.50;86.76
19536;HTU21D;9913;51.168;4.124;2023-07-09T03:59:42;21.57;86.83
19536;HTU21D;9913;51.168;4.124;2023-07-09T04:02:11;21.42;87.37
19536;HTU21D;9913;51.168;4.124;2023-07-09T04:04:39;21.32;88.07
19536;HTU21D;9913;51.168;4.124;2023-07-09T04:07:08;21.62;87.11
19536;HTU21D;9913;51.168;4.124;2023-07-09T04:09:36;21.32;87.68
19536;HTU21D;9913;51.168;4.124;2023-07-09T04:12:07;21.40;87.38
19536;HTU21D;9913;51.168;4.124;2023-07-09T04:14:35;21.43;87.60
19536;HTU21D;9913;51.168;4.124;2023-07-09T04:17:04;21.50;87.86
19536;HTU21D;9913;51.168;4.124;2023-07-09T04:19:33;21.52;87.33
19536;HTU21D;9913;51.168;4.124;2023-07-09T04:22:01;21.45;87.44
19536;HTU21D;9913;51.168;4.124;2023-07-09T04:24:30;21.38;87.87
19536;HTU21D;9913;51.168;4.124;2023-07-09T04:27:00;21.49;87.76
19536;HTU21D;9913;51.168;4.124;2023-07-09T04:29:32;21.47;87.95
19536;HTU21D;9913;51.168;4.124;2023-07-09T04:32:02;21.32;87.78
19536;HTU21D;9913;51.168;4.124;2023-07-09T04:34:31;21.27;88.23
19536;HTU21D;9913;51.168;4.124;2023-07-09T04:36:59;21.50;87.48
19536;HTU21D;9913;51.168;4.124;2023-07-09T04:39:28;21.45;87.76
19536;HTU21D;9913;51.168;4.124;2023-07-09T04:41:56;21.51;87.39
19536;HTU21D;9913;51.168;4.124;2023-07-09T04:44:24;21.67;87.12
19536;HTU21D;9913;51.168;4.124;2023-07-09T04:46:54;21.61;86.98
19536;HTU21D;9913;51.168;4.124;2023-07-09T04:49:23;21.58;87.03
19536;HTU21D;9913;51.168;4.124;2023-07-09T04:51:52;21.78;86.64
19536;HTU21D;9913;51.168;4.124;2023-07-09T04:54:23;21.55;87.30
19536;HTU21D;9913;51.168;4.124;2023-07-09T04:56:52;21.63;87.14
19536;HTU21D;9913;51.168;4.124;2023-07-09T04:59:20;21.64;87.15
19536;HTU21D;9913;51.168;4.124;2023-07-09T05:01:49;21.76;86.60
19536;HTU21D;9913;51.168;4.124;2023-07-09T05:04:19;21.67;87.22
19536;HTU21D;9913;51.168;4.124;2023-07-09T05:06:48;21.65;86.41
19536;HTU21D;9913;51.168;4.124;2023-07-09T05:09:16;21.84;86.43
19536;HTU21D;9913;51.168;4.124;2023-07-09T05:11:45;21.85;86.62
19536;HTU21D;9913;51.168;4.124;2023-07-09T05:14:14;21.83;87.15
19536;HTU21D;9913;51.168;4.124;2023-07-09T05:16:43;21.74;87.04
19536;HTU21D;9913;51.168;4.124;2023-07-09T05:19:12;21.76;87.52
19536;HTU21D;9913;51.168;4.124;2023-07-09T05:21:42;21.72;86.64
19536;HTU21D;9913;51.168;4.124;2023-07-09T05:24:10;21.74;86.64
19536;HTU21D;9913;51.168;4.124;2023-07-09T05:26:39;21.90;86.56
19536;HTU21D;9913;51.168;4.124;2023-07-09T05:29:07;21.74;87.18
19536;HTU21D;9913;51.168;4.124;2023-07-09T05:31:35;22.08;86.66
19536;HTU21D;9913;51.168;4.124;2023-07-09T05:34:04;22.09;86.09
19536;HTU21D;9913;51.168;4.124;2023-07-09T05:36:32;22.05;86.75
19536;HTU21D;9913;51.168;4.124;2023-07-09T05:39:02;21.98;86.96
19536;HTU21D;9913;51.168;4.124;2023-07-09T05:41:31;21.98;86.99
19536;HTU21D;9913;51.168;4.124;2023-07-09T05:43:59;22.16;86.11
19536;HTU21D;9913;51.168;4.124;2023-07-09T05:46:27;22.35;86.59
19536;HTU21D;9913;51.168;4.124;2023-07-09T05:48:56;22.40;86.02
19536;HTU21D;9913;51.168;4.124;2023-07-09T05:51:24;22.36;86.25
19536;HTU21D;9913;51.168;4.124;2023-07-09T05:53:55;22.34;86.70
19536;HTU21D;9913;51.168;4.124;2023-07-09T05:56:25;22.65;85.84
19536;HTU21D;9913;51.168;4.124;2023-07-09T05:58:53;22.56;85.64
19536;HTU21D;9913;51.168;4.124;2023-07-09T06:01:23;22.63;86.04
19536;HTU21D;9913;51.168;4.124;2023-07-09T06:03:54;22.66;86.33
19536;HTU21D;9913;51.168;4.124;2023-07-09T06:06:23;22.63;86.32
19536;HTU21D;9913;51.168;4.124;2023-07-09T06:08:53;22.78;86.19
19536;HTU21D;9913;51.168;4.124;2023-07-09T06:11:21;22.69;86.50
19536;HTU21D;9913;51.168;4.124;2023-07-09T06:13:51;22.77;86.27
19536;HTU21D;9913;51.168;4.124;2023-07-09T06:16:20;22.82;85.85
19536;HTU21D;9913;51.168;4.124;2023-07-09T06:18:48;22.81;85.64
19536;HTU21D;9913;51.168;4.124;2023-07-09T06:21:17;22.83;86.29
19536;HTU21D;9913;51.168;4.124;2023-07-09T06:23:45;22.88;86.00
19536;HTU21D;9913;51.168;4.124;2023-07-09T06:26:14;22.86;85.90
19536;HTU21D;9913;51.168;4.124;2023-07-09T06:28:42;22.79;86.81
19536;HTU21D;9913;51.168;4.124;2023-07-09T06:31:12;22.92;86.68
19536;HTU21D;9913;51.168;4.124;2023-07-09T06:33:40;22.86;86.03
19536;HTU21D;9913;51.168;4.124;2023-07-09T06:36:08;23.08;85.78
19536;HTU21D;9913;51.168;4.124;2023-07-09T06:38:37;23.03;86.00
19536;HTU21D;9913;51.168;4.124;2023-07-09T06:41:05;23.16;85.87
19536;HTU21D;9913;51.168;4.124;2023-07-09T06:43:34;23.27;86.47
19536;HTU21D;9913;51.168;4.124;2023-07-09T06:46:08;23.26;85.56
19536;HTU21D;9913;51.168;4.124;2023-07-09T06:48:40;23.15;85.93
19536;HTU21D;9913;51.168;4.124;2023-07-09T06:51:08;23.25;86.03
19536;HTU21D;9913;51.168;4.124;2023-07-09T06:53:37;23.32;85.61
19536;HTU21D;9913;51.168;4.124;2023-07-09T06:56:06;23.45;86.50
19536;HTU21D;9913;51.168;4.124;2023-07-09T06:58:36;23.37;86.29
19536;HTU21D;9913;51.168;4.124;2023-07-09T07:01:04;23.47;86.36
19536;HTU21D;9913;51.168;4.124;2023-07-09T07:03:33;23.52;86.71
19536;HTU21D;9913;51.168;4.124;2023-07-09T07:06:03;23.60;87.23
19536;HTU21D;9913;51.168;4.124;2023-07-09T07:08:34;23.39;86.63
19536;HTU21D;9913;51.168;4.124;2023-07-09T07:11:03;23.55;86.61
19536;HTU21D;9913;51.168;4.124;2023-07-09T07:13:34;23.64;86.97
19536;HTU21D;9913;51.168;4.124;2023-07-09T07:16:05;23.69;86.65
19536;HTU21D;9913;51.168;4.124;2023-07-09T07:18:33;23.79;87.17
19536;HTU21D;9913;51.168;4.124;2023-07-09T07:21:04;23.86;86.92
19536;HTU21D;9913;51.168;4.124;2023-07-09T07:23:32;23.86;86.98
19536;HTU21D;9913;51.168;4.124;2023-07-09T07:26:01;23.85;86.47
19536;HTU21D;9913;51.168;4.124;2023-07-09T07:28:31;24.02;87.41
19536;HTU21D;9913;51.168;4.124;2023-07-09T07:31:00;24.12;88.05
19536;HTU21D;9913;51.168;4.124;2023-07-09T07:33:29;24.17;87.09
19536;HTU21D;9913;51.168;4.124;2023-07-09T07:35:57;24.08;87.64
19536;HTU21D;9913;51.168;4.124;2023-07-09T07:38:47;24.26;87.62
19536;HTU21D;9913;51.168;4.124;2023-07-09T07:41:15;24.31;87.77
19536;HTU21D;9913;51.168;4.124;2023-07-09T07:43:44;24.48;88.57
19536;HTU21D;9913;51.168;4.124;2023-07-09T07:46:12;24.58;88.32
19536;HTU21D;9913;51.168;4.124;2023-07-09T07:48:41;24.60;89.61
19536;HTU21D;9913;51.168;4.124;2023-07-09T07:51:12;24.45;88.76
19536;HTU21D;9913;51.168;4.124;2023-07-09T07:53:41;24.44;89.15
19536;HTU21D;9913;51.168;4.124;2023-07-09T07:56:11;24.54;89.76
19536;HTU21D;9913;51.168;4.124;2023-07-09T07:58:40;24.54;89.03
19536;HTU21D;9913;51.168;4.124;2023-07-09T08:01:08;24.49;88.93
19536;HTU21D;9913;51.168;4.124;2023-07-09T08:03:36;24.64;89.22
19536;HTU21D;9913;51.168;4.124;2023-07-09T08:06:05;24.70;89.73
19536;HTU21D;9913;51.168;4.124;2023-07-09T08:08:34;24.75;89.49
19536;HTU21D;9913;51.168;4.124;2023-07-09T08:11:03;24.80;90.41
19536;HTU21D;9913;51.168;4.124;2023-07-09T08:13:36;24.73;90.30
19536;HTU21D;9913;51.168;4.124;2023-07-09T08:16:06;24.87;89.92
19536;HTU21D;9913;51.168;4.124;2023-07-09T08:18:35;25.02;89.42
19536;HTU21D;9913;51.168;4.124;2023-07-09T08:21:04;24.95;91.73
19536;HTU21D;9913;51.168;4.124;2023-07-09T08:23:32;25.02;89.38
19536;HTU21D;9913;51.168;4.124;2023-07-09T08:26:02;25.28;89.73
19536;HTU21D;9913;51.168;4.124;2023-07-09T08:28:32;25.19;89.99
19536;HTU21D;9913;51.168;4.124;2023-07-09T08:31:02;25.21;89.40
19536;HTU21D;9913;51.168;4.124;2023-07-09T08:33:31;25.28;88.63
19536;HTU21D;9913;51.168;4.124;2023-07-09T08:35:59;25.46;90.85
19536;HTU21D;9913;51.168;4.124;2023-07-09T08:38:27;25.33;91.79
19536;HTU21D;9913;51.168;4.124;2023-07-09T08:40:58;25.45;91.42
19536;HTU21D;9913;51.168;4.124;2023-07-09T08:43:35;25.53;90.46
19536;HTU21D;9913;51.168;4.124;2023-07-09T08:46:16;25.48;90.70
19536;HTU21D;9913;51.168;4.124;2023-07-09T08:48:48;25.52;91.64
19536;HTU21D;9913;51.168;4.124;2023-07-09T08:51:21;25.75;91.60
19536;HTU21D;9913;51.168;4.124;2023-07-09T08:53:56;25.84;93.11
19536;HTU21D;9913;51.168;4.124;2023-07-09T08:56:26;25.94;92.98
19536;HTU21D;9913;51.168;4.124;2023-07-09T08:58:55;25.89;95.21
19536;HTU21D;9913;51.168;4.124;2023-07-09T09:01:31;25.79;94.01
19536;HTU21D;9913;51.168;4.124;2023-07-09T09:04:05;25.94;93.51
19536;HTU21D;9913;51.168;4.124;2023-07-09T09:06:34;25.80;93.23
19536;HTU21D;9913;51.168;4.124;2023-07-09T09:09:12;25.75;93.17
19536;HTU21D;9913;51.168;4.124;2023-07-09T09:11:44;25.86;93.34
19536;HTU21D;9913;51.168;4.124;2023-07-09T09:14:21;26.11;93.11
19536;HTU21D;9913;51.168;4.124;2023-07-09T09:16:54;26.18;93.17
19536;HTU21D;9913;51.168;4.124;2023-07-09T09:19:27;26.34;95.75
19536;HTU21D;9913;51.168;4.124;2023-07-09T09:22:00;26.47;94.11
19536;HTU21D;9913;51.168;4.124;2023-07-09T09:24:36;26.64;95.08
19536;HTU21D;9913;51.168;4.124;2023-07-09T09:27:08;26.84;93.23
19536;HTU21D;9913;51.168;4.124;2023-07-09T09:29:36;27.02;95.72
19536;HTU21D;9913;51.168;4.124;2023-07-09T09:32:18;27.09;95.02
19536;HTU21D;9913;51.168;4.124;2023-07-09T09:34:48;27.09;95.01
19536;HTU21D;9913;51.168;4.124;2023-07-09T09:37:25;27.35;94.93
19536;HTU21D;9913;51.168;4.124;2023-07-09T09:39:54;27.40;93.98
19536;HTU21D;9913;51.168;4.124;2023-07-09T09:42:42;27.45;94.14
19536;HTU21D;9913;51.168;4.124;2023-07-09T09:45:14;27.24;96.01
19536;HTU21D;9913;51.168;4.124;2023-07-09T09:47:45;27.21;93.66
19536;HTU21D;9913;51.168;4.124;2023-07-09T09:50:14;27.36;94.36
19536;HTU21D;9913;51.168;4.124;2023-07-09T09:52:44;27.36;94.65
19536;HTU21D;9913;51.168;4.124;2023-07-09T09:55:17;27.17;94.61
19536;HTU21D;9913;51.168;4.124;2023-07-09T09:57:49;27.19;92.69
19536;HTU21D;9913;51.168;4.124;2023-07-09T10:00:18;27.20;94.81
19536;HTU21D;9913;51.168;4.124;2023-07-09T10:02:49;27.19;94.54
19536;HTU21D;9913;51.168;4.124;2023-07-09T10:05:21;27.41;93.81
19536;HTU21D;9913;51.168;4.124;2023-07-09T10:07:59;27.93;93.75
19536;HTU21D;9913;51.168;4.124;2023-07-09T10:10:33;28.03;94.27
19536;HTU21D;9913;51.168;4.124;2023-07-09T10:13:09;28.02;92.68
19536;HTU21D;9913;51.168;4.124;2023-07-09T10:15:43;27.89;93.74
19536;HTU21D;9913;51.168;4.124;2023-07-09T10:18:36;27.70;95.83
19536;HTU21D;9913;51.168;4.124;2023-07-09T10:21:10;27.81;94.34
19536;HTU21D;9913;51.168;4.124;2023-07-09T10:23:48;27.85;93.03
19536;HTU21D;9913;51.168;4.124;2023-07-09T10:26:30;28.01;95.46
19536;HTU21D;9913;51.168;4.124;2023-07-09T10:31:58;27.76;96.29
19536;HTU21D;9913;51.168;4.124;2023-07-09T10:34:43;27.69;95.14
19536;HTU21D;9913;51.168;4.124;2023-07-09T10:37:27;27.75;92.95
19536;HTU21D;9913;51.168;4.124;2023-07-09T10:40:03;27.59;93.78
19536;HTU21D;9913;51.168;4.124;2023-07-09T10:42:37;27.19;91.94
19536;HTU21D;9913;51.168;4.124;2023-07-09T10:45:10;26.95;93.80
19536;HTU21D;9913;51.168;4.124;2023-07-09T10:47:43;26.84;95.30
19536;HTU21D;9913;51.168;4.124;2023-07-09T10:50:17;26.68;93.83
19536;HTU21D;9913;51.168;4.124;2023-07-09T10:52:50;26.68;95.07
19536;HTU21D;9913;51.168;4.124;2023-07-09T10:55:36;26.69;93.54
19536;HTU21D;9913;51.168;4.124;2023-07-09T10:58:23;26.68;93.17
19536;HTU21D;9913;51.168;4.124;2023-07-09T11:00:53;26.64;93.05
19536;HTU21D;9913;51.168;4.124;2023-07-09T11:03:26;26.56;94.78
19536;HTU21D;9913;51.168;4.124;2023-07-09T11:05:59;26.73;95.10
19536;HTU21D;9913;51.168;4.124;2023-07-09T11:08:31;26.62;93.91
19536;HTU21D;9913;51.168;4.124;2023-07-09T11:11:04;26.86;94.80
19536;HTU21D;9913;51.168;4.124;2023-07-09T11:13:38;27.09;95.33
19536;HTU21D;9913;51.168;4.124;2023-07-09T11:16:22;27.20;92.12
19536;HTU21D;9913;51.168;4.124;2023-07-09T11:18:56;27.66;94.15
19536;HTU21D;9913;51.168;4.124;2023-07-09T11:21:27;27.88;94.76
19536;HTU21D;9913;51.168;4.124;2023-07-09T11:23:57;28.12;94.27
19536;HTU21D;9913;51.168;4.124;2023-07-09T11:26:28;27.82;91.94
19536;HTU21D;9913;51.168;4.124;2023-07-09T11:29:13;28.10;92.54
19536;HTU21D;9913;51.168;4.124;2023-07-09T11:31:43;28.06;96.18
19536;HTU21D;9913;51.168;4.124;2023-07-09T11:34:17;27.93;93.98
19536;HTU21D;9913;51.168;4.124;2023-07-09T11:37:11;27.74;91.82
19536;HTU21D;9913;51.168;4.124;2023-07-09T11:39:45;27.87;95.47
19536;HTU21D;9913;51.168;4.124;2023-07-09T11:42:32;27.60;94.17
19536;HTU21D;9913;51.168;4.124;2023-07-09T11:45:10;27.09;95.44
19536;HTU21D;9913;51.168;4.124;2023-07-09T11:47:43;26.69;93.54
19536;HTU21D;9913;51.168;4.124;2023-07-09T11:50:21;26.58;93.40
19536;HTU21D;9913;51.168;4.124;2023-07-09T11:52:55;26.37;93.39
19536;HTU21D;9913;51.168;4.124;2023-07-09T11:55:29;26.26;93.78
19536;HTU21D;9913;51.168;4.124;2023-07-09T11:58:01;26.19;92.89
19536;HTU21D;9913;51.168;4.124;2023-07-09T12:00:37;25.98;94.59
19536;HTU21D;9913;51.168;4.124;2023-07-09T12:03:06;25.88;92.73
19536;HTU21D;9913;51.168;4.124;2023-07-09T12:05:35;25.54;91.23
19536;HTU21D;9913;51.168;4.124;2023-07-09T12:08:06;25.40;90.79
19536;HTU21D;9913;51.168;4.124;2023-07-09T12:10:36;25.42;91.30
19536;HTU21D;9913;51.168;4.124;2023-07-09T12:13:04;25.33;92.76
19536;HTU21D;9913;51.168;4.124;2023-07-09T12:15:32;25.21;91.69
19536;HTU21D;9913;51.168;4.124;2023-07-09T12:18:03;25.02;93.01
19536;HTU21D;9913;51.168;4.124;2023-07-09T12:20:35;24.99;92.10
19536;HTU21D;9913;51.168;4.124;2023-07-09T12:23:15;24.87;93.17
19536;HTU21D;9913;51.168;4.124;2023-07-09T12:25:47;24.86;96.52
19536;HTU21D;9913;51.168;4.124;2023-07-09T12:28:17;24.89;93.04
19536;HTU21D;9913;51.168;4.124;2023-07-09T12:30:46;24.86;92.49
19536;HTU21D;9913;51.168;4.124;2023-07-09T12:33:17;24.93;92.34
19536;HTU21D;9913;51.168;4.124;2023-07-09T12:35:46;24.87;93.10
19536;HTU21D;9913;51.168;4.124;2023-07-09T12:38:18;24.59;90.07
19536;HTU21D;9913;51.168;4.124;2023-07-09T12:40:48;24.61;91.66
19536;HTU21D;9913;51.168;4.124;2023-07-09T12:43:22;24.27;90.15
19536;HTU21D;9913;51.168;4.124;2023-07-09T12:45:51;24.24;89.35
19536;HTU21D;9913;51.168;4.124;2023-07-09T12:48:22;24.25;88.71
19536;HTU21D;9913;51.168;4.124;2023-07-09T12:50:51;24.18;88.92
19536;HTU21D;9913;51.168;4.124;2023-07-09T12:53:23;24.18;86.98
19536;HTU21D;9913;51.168;4.124;2023-07-09T12:55:55;24.24;87.61
19536;HTU21D;9913;51.168;4.124;2023-07-09T12:58:27;23.92;86.72
19536;HTU21D;9913;51.168;4.124;2023-07-09T13:01:05;23.82;86.36
19536;HTU21D;9913;51.168;4.124;2023-07-09T13:03:34;23.79;85.66
19536;HTU21D;9913;51.168;4.124;2023-07-09T13:06:05;23.51;85.67
19536;HTU21D;9913;51.168;4.124;2023-07-09T13:08:43;23.51;85.62
19536;HTU21D;9913;51.168;4.124;2023-07-09T13:11:15;23.39;86.19
19536;HTU21D;9913;51.168;4.124;2023-07-09T13:13:54;23.24;85.81
19536;HTU21D;9913;51.168;4.124;2023-07-09T13:16:25;23.20;85.92
19536;HTU21D;9913;51.168;4.124;2023-07-09T13:18:55;23.42;86.42
19536;HTU21D;9913;51.168;4.124;2023-07-09T13:21:24;23.36;85.22
19536;HTU21D;9913;51.168;4.124;2023-07-09T13:23:55;23.26;84.46
19536;HTU21D;9913;51.168;4.124;2023-07-09T13:26:23;23.41;85.57
19536;HTU21D;9913;51.168;4.124;2023-07-09T13:28:51;23.51;84.99
19536;HTU21D;9913;51.168;4.124;2023-07-09T13:31:23;23.51;83.43
19536;HTU21D;9913;51.168;4.124;2023-07-09T13:33:55;23.61;82.99
19536;HTU21D;9913;51.168;4.124;2023-07-09T13:36:25;23.59;83.10
19536;HTU21D;9913;51.168;4.124;2023-07-09T13:38:54;23.38;83.20
19536;HTU21D;9913;51.168;4.124;2023-07-09T13:41:23;23.45;84.66
19536;HTU21D;9913;51.168;4.124;2023-07-09T13:43:52;23.40;84.72
19536;HTU21D;9913;51.168;4.124;2023-07-09T13:46:21;23.32;84.45
19536;HTU21D;9913;51.168;4.124;2023-07-09T13:48:52;23.23;83.68
19536;HTU21D;9913;51.168;4.124;2023-07-09T13:51:23;23.35;83.24
19536;HTU21D;9913;51.168;4.124;2023-07-09T13:53:55;23.42;83.48
19536;HTU21D;9913;51.168;4.124;2023-07-09T13:56:24;23.50;82.98
19536;HTU21D;9913;51.168;4.124;2023-07-09T13:58:53;23.50;83.75
19536;HTU21D;9913;51.168;4.124;2023-07-09T14:01:23;23.49;83.63
19536;HTU21D;9913;51.168;4.124;2023-07-09T14:03:55;23.47;82.56
19536;HTU21D;9913;51.168;4.124;2023-07-09T14:06:25;23.44;82.38
19536;HTU21D;9913;51.168;4.124;2023-07-09T14:08:55;23.37;82.40
19536;HTU21D;9913;51.168;4.124;2023-07-09T14:11:25;23.21;83.75
19536;HTU21D;9913;51.168;4.124;2023-07-09T14:13:54;23.31;85.48
19536;HTU21D;9913;51.168;4.124;2023-07-09T14:16:22;23.27;85.37
19536;HTU21D;9913;51.168;4.124;2023-07-09T14:18:51;23.14;84.09
19536;HTU21D;9913;51.168;4.124;2023-07-09T14:21:23;23.15;85.20
19536;HTU21D;9913;51.168;4.124;2023-07-09T14:23:53;23.27;85.13
19536;HTU21D;9913;51.168;4.124;2023-07-09T14:26:23;23.42;84.41
19536;HTU21D;9913;51.168;4.124;2023-07-09T14:28:52;24.42;83.13
19536;HTU21D;9913;51.168;4.124;2023-07-09T14:31:24;24.70;80.66
19536;HTU21D;9913;51.168;4.124;2023-07-09T14:33:56;24.82;81.08
19536;HTU21D;9913;51.168;4.124;2023-07-09T14:36:25;25.13;81.09
19536;HTU21D;9913;51.168;4.124;2023-07-09T14:38:53;24.74;80.33
19536;HTU21D;9913;51.168;4.124;2023-07-09T14:41:26;24.79;80.64
19536;HTU21D;9913;51.168;4.124;2023-07-09T14:43:57;25.13;80.92
19536;HTU21D;9913;51.168;4.124;2023-07-09T14:46:26;25.00;78.41
19536;HTU21D;9913;51.168;4.124;2023-07-09T14:48:54;25.09;79.94
19536;HTU21D;9913;51.168;4.124;2023-07-09T14:51:22;26.03;78.21
19536;HTU21D;9913;51.168;4.124;2023-07-09T14:53:51;27.32;74.96
19536;HTU21D;9913;51.168;4.124;2023-07-09T14:56:20;28.98;71.68
19536;HTU21D;9913;51.168;4.124;2023-07-09T14:58:50;29.51;69.09
19536;HTU21D;9913;51.168;4.124;2023-07-09T15:01:18;28.71;68.48
19536;HTU21D;9913;51.168;4.124;2023-07-09T15:03:47;28.20;69.04
19536;HTU21D;9913;51.168;4.124;2023-07-09T15:06:16;27.65;70.29
19536;HTU21D;9913;51.168;4.124;2023-07-09T15:08:45;27.15;70.82
19536;HTU21D;9913;51.168;4.124;2023-07-09T15:11:14;26.76;73.16
19536;HTU21D;9913;51.168;4.124;2023-07-09T15:13:42;26.13;72.64
19536;HTU21D;9913;51.168;4.124;2023-07-09T15:16:12;25.67;73.03
19536;HTU21D;9913;51.168;4.124;2023-07-09T15:18:40;26.53;72.64
19536;HTU21D;9913;51.168;4.124;2023-07-09T15:21:09;28.32;67.96
19536;HTU21D;9913;51.168;4.124;2023-07-09T15:23:40;28.71;66.60
19536;HTU21D;9913;51.168;4.124;2023-07-09T15:26:13;27.74;66.69
19536;HTU21D;9913;51.168;4.124;2023-07-09T15:28:41;27.61;67.17
19536;HTU21D;9913;51.168;4.124;2023-07-09T15:31:12;27.44;66.27
19536;HTU21D;9913;51.168;4.124;2023-07-09T15:33:40;28.01;67.24
19536;HTU21D;9913;51.168;4.124;2023-07-09T15:36:10;28.19;66.64
19536;HTU21D;9913;51.168;4.124;2023-07-09T15:38:39;28.61;65.95
19536;HTU21D;9913;51.168;4.124;2023-07-09T15:41:11;28.86;63.66
19536;HTU21D;9913;51.168;4.124;2023-07-09T15:43:42;28.26;65.09
19536;HTU21D;9913;51.168;4.124;2023-07-09T15:46:17;27.57;66.05
19536;HTU21D;9913;51.168;4.124;2023-07-09T15:48:47;28.33;64.89
19536;HTU21D;9913;51.168;4.124;2023-07-09T15:51:16;27.50;67.18
19536;HTU21D;9913;51.168;4.124;2023-07-09T15:53:45;27.73;63.19
19536;HTU21D;9913;51.168;4.124;2023-07-09T15:56:23;27.60;64.66